createdAt,value
2018-11-22T00:02:17.213Z,3.90
2018-11-22T00:04:50.590Z,4.03
2018-11-22T00:07:27.360Z,4.07
2018-11-22T00:10:00.758Z,3.83
2018-11-22T00:12:37.974Z,3.77
2018-11-22T00:15:17.958Z,3.80
2018-11-22T00:17:51.013Z,4.00
2018-11-22T00:20:25.640Z,3.90
2018-11-22T00:23:01.172Z,3.93
2018-11-22T00:25:34.479Z,3.70
2018-11-22T00:28:07.099Z,3.80
2018-11-22T00:30:41.371Z,3.80
2018-11-22T00:33:15.000Z,3.40
2018-11-22T00:35:49.306Z,3.67
2018-11-22T00:38:24.898Z,3.97
2018-11-22T00:40:59.350Z,3.83
2018-11-22T00:43:32.707Z,3.67
2018-11-22T00:46:11.883Z,4.03
2018-11-22T00:48:48.307Z,5.07
2018-11-22T00:51:21.716Z,4.20
2018-11-22T00:53:54.378Z,4.67
2018-11-22T00:56:27.119Z,4.70
2018-11-22T00:59:00.014Z,4.80
2018-11-22T01:01:35.635Z,7.10
2018-11-22T01:04:10.314Z,6.80
2018-11-22T01:06:42.911Z,6.53
2018-11-22T01:09:16.242Z,7.13
2018-11-22T01:11:48.890Z,7.03
2018-11-22T01:14:21.572Z,7.53
2018-11-22T01:16:57.513Z,5.93
2018-11-22T01:19:34.824Z,6.60
2018-11-22T01:22:21.527Z,6.50
2018-11-22T01:24:55.729Z,6.60
2018-11-22T01:27:30.538Z,5.93
2018-11-22T01:30:03.310Z,6.40
2018-11-22T01:32:36.003Z,7.47
2018-11-22T01:35:09.017Z,6.60
2018-11-22T01:37:42.253Z,6.67
2018-11-22T01:40:19.782Z,6.47
2018-11-22T01:42:52.483Z,7.33
2018-11-22T01:45:28.678Z,6.27
2018-11-22T01:48:03.575Z,6.60
2018-11-22T01:50:36.170Z,6.53
2018-11-22T01:53:10.134Z,7.20
2018-11-22T01:55:47.606Z,7.33
2018-11-22T01:58:23.466Z,6.70
2018-11-22T02:00:56.064Z,7.43
2018-11-22T02:03:28.799Z,7.90
2018-11-22T02:06:01.462Z,9.83
2018-11-22T02:08:35.048Z,10.67
2018-11-22T02:11:07.705Z,10.93
2018-11-22T02:13:43.359Z,10.70
2018-11-22T02:16:15.944Z,9.60
2018-11-22T02:18:49.217Z,10.10
2018-11-22T02:21:22.734Z,10.20
2018-11-22T02:23:58.116Z,9.60
2018-11-22T02:26:32.946Z,9.60
2018-11-22T02:29:10.166Z,10.27
2018-11-22T02:31:48.692Z,9.70
2018-11-22T02:34:27.455Z,9.03
2018-11-22T02:37:00.747Z,7.33
2018-11-22T02:39:34.062Z,7.23
2018-11-22T02:42:06.648Z,6.50
2018-11-22T02:44:46.309Z,7.13
2018-11-22T02:47:20.040Z,6.87
2018-11-22T02:49:55.890Z,6.80
2018-11-22T02:52:32.596Z,6.23
2018-11-22T02:55:08.596Z,7.03
2018-11-22T02:57:45.264Z,6.50
2018-11-22T03:00:38.349Z,6.60
2018-11-22T03:03:16.311Z,7.60
2018-11-22T03:05:54.813Z,6.93
2018-11-22T03:08:28.020Z,7.40
2018-11-22T03:11:00.660Z,6.90
2018-11-22T03:13:35.744Z,6.70
2018-11-22T03:16:09.223Z,6.87
2018-11-22T03:18:51.412Z,6.50
2018-11-22T03:21:24.187Z,7.30
2018-11-22T03:23:57.792Z,7.63
2018-11-22T03:26:33.344Z,8.43
2018-11-22T03:29:10.572Z,8.67
2018-11-22T03:31:43.970Z,8.70
2018-11-22T03:34:20.400Z,9.87
2018-11-22T03:36:53.850Z,9.63
2018-11-22T03:39:29.437Z,9.53
2018-11-22T03:42:06.432Z,10.50
2018-11-22T03:44:41.112Z,8.90
2018-11-22T03:47:16.150Z,9.00
2018-11-22T03:49:52.416Z,9.27
2018-11-22T03:52:25.067Z,8.37
2018-11-22T03:55:14.297Z,9.03
2018-11-22T03:57:53.443Z,8.23
2018-11-22T04:00:32.256Z,7.77
2018-11-22T04:03:05.615Z,6.97
2018-11-22T04:05:41.666Z,7.33
2018-11-22T04:08:15.359Z,7.07
2018-11-22T04:10:57.575Z,7.30
2018-11-22T04:13:41.374Z,8.10
2018-11-22T04:16:17.874Z,7.90
2018-11-22T04:18:55.928Z,8.20
2018-11-22T04:21:36.607Z,8.00
2018-11-22T04:24:13.718Z,9.97
2018-11-22T04:26:55.758Z,11.20
2018-11-22T04:29:29.790Z,13.53
2018-11-22T04:32:04.815Z,10.57
2018-11-22T04:34:39.887Z,10.97
2018-11-22T04:37:17.579Z,11.83
2018-11-22T04:39:51.522Z,10.87
2018-11-22T04:42:25.176Z,10.23
2018-11-22T04:44:58.342Z,9.53
2018-11-22T04:47:33.277Z,9.30
2018-11-22T04:50:06.041Z,8.37
2018-11-22T04:52:38.807Z,8.50
2018-11-22T04:55:13.561Z,8.30
2018-11-22T04:57:47.075Z,7.80
2018-11-22T05:00:24.183Z,7.70
2018-11-22T05:03:02.213Z,7.83
2018-11-22T05:05:37.619Z,8.07
2018-11-22T05:08:20.905Z,6.80
2018-11-22T05:10:55.758Z,7.07
2018-11-22T05:13:35.785Z,8.00
2018-11-22T05:16:18.294Z,11.00
2018-11-22T05:18:54.212Z,8.73
2018-11-22T05:21:27.034Z,9.53
2018-11-22T05:23:59.840Z,9.93
2018-11-22T05:26:53.845Z,9.03
2018-11-22T05:29:30.027Z,8.63
2018-11-22T05:32:05.043Z,8.70
2018-11-22T05:34:37.774Z,7.40
2018-11-22T05:37:28.700Z,6.80
2018-11-22T05:40:01.900Z,7.87
2018-11-22T05:42:37.004Z,7.83
2018-11-22T05:45:14.901Z,7.80
2018-11-22T05:47:50.535Z,8.10
2018-11-22T05:50:32.682Z,7.53
2018-11-22T05:53:06.429Z,8.17
2018-11-22T05:55:40.333Z,8.20
2018-11-22T05:58:13.303Z,8.00
2018-11-22T06:00:46.024Z,8.87
2018-11-22T06:03:21.631Z,8.60
2018-11-22T06:05:58.089Z,7.60
2018-11-22T06:08:32.972Z,7.70
2018-11-22T06:11:06.399Z,7.80
2018-11-22T06:13:39.152Z,7.37
2018-11-22T06:16:14.085Z,8.80
2018-11-22T06:18:48.389Z,8.60
2018-11-22T06:21:21.777Z,8.73
2018-11-22T06:23:55.391Z,7.63
2018-11-22T06:26:35.333Z,7.73
2018-11-22T06:29:15.056Z,7.43
2018-11-22T06:31:52.386Z,7.57
2018-11-22T06:34:29.458Z,6.27
2018-11-22T06:37:04.491Z,5.90
2018-11-22T06:39:37.694Z,6.23
2018-11-22T06:42:10.356Z,6.43
2018-11-22T06:44:43.495Z,6.33
2018-11-22T06:47:16.136Z,6.30
2018-11-22T06:49:48.774Z,6.30
2018-11-22T06:52:21.926Z,7.03
2018-11-22T06:54:56.223Z,6.83
2018-11-22T06:57:32.485Z,6.33
2018-11-22T07:00:05.109Z,7.30
2018-11-22T07:02:38.519Z,6.30
2018-11-22T07:05:13.533Z,6.03
2018-11-22T07:07:46.235Z,7.13
2018-11-22T07:10:23.520Z,6.83
2018-11-22T07:12:56.742Z,6.37
2018-11-22T07:15:31.797Z,6.70
2018-11-22T07:18:06.007Z,6.93
2018-11-22T07:20:39.400Z,7.10
2018-11-22T07:23:15.387Z,7.07
2018-11-22T07:25:56.660Z,8.40
2018-11-22T07:28:32.848Z,6.97
2018-11-22T07:31:07.593Z,7.23
2018-11-22T07:33:45.619Z,7.60
2018-11-22T07:36:19.765Z,7.70
2018-11-22T07:38:52.517Z,7.03
2018-11-22T07:41:25.105Z,7.47
2018-11-22T07:46:56.079Z,8.20
2018-11-22T07:49:28.812Z,7.20
2018-11-22T07:52:01.547Z,6.70
2018-11-22T07:54:37.701Z,6.73
2018-11-22T07:57:14.792Z,6.10
2018-11-22T07:59:52.996Z,6.60
2018-11-22T08:02:28.219Z,7.03
2018-11-22T08:05:03.932Z,6.30
2018-11-22T08:07:46.732Z,6.00
2018-11-22T08:10:19.946Z,6.00
2018-11-22T08:12:59.359Z,6.40
2018-11-22T08:15:34.643Z,6.33
2018-11-22T08:18:07.306Z,7.07
2018-11-22T08:20:49.137Z,6.50
2018-11-22T08:23:28.598Z,6.10
2018-11-22T08:26:07.354Z,6.40
2018-11-22T08:28:52.703Z,6.10
2018-11-22T08:31:33.305Z,6.40
2018-11-22T08:34:06.034Z,5.73
2018-11-22T08:36:50.779Z,6.60
2018-11-22T08:39:24.175Z,6.30
2018-11-22T08:42:03.025Z,6.13
2018-11-22T08:44:41.197Z,6.10
2018-11-22T08:47:18.824Z,6.30
2018-11-22T08:49:51.471Z,5.67
2018-11-22T08:52:24.792Z,5.50
2018-11-22T08:55:00.492Z,5.83
2018-11-22T08:57:37.859Z,6.00
2018-11-22T09:00:31.194Z,5.37
2018-11-22T09:03:08.794Z,5.73
2018-11-22T09:05:41.510Z,5.43
2018-11-22T09:08:18.697Z,5.50
2018-11-22T09:10:56.720Z,5.27
2018-11-22T09:13:31.454Z,5.40
2018-11-22T09:16:05.365Z,4.97
2018-11-22T09:18:40.325Z,5.50
2018-11-22T09:21:12.987Z,5.10
2018-11-22T09:23:48.004Z,5.33
2018-11-22T09:26:20.776Z,4.80
2018-11-22T09:28:54.885Z,4.93
2018-11-22T09:31:31.244Z,4.53
2018-11-22T09:34:08.172Z,4.93
2018-11-22T09:36:46.646Z,4.50
2018-11-22T09:39:19.883Z,4.27
2018-11-22T09:41:55.738Z,4.60
2018-11-22T09:44:31.582Z,4.27
2018-11-22T09:47:08.522Z,3.40
2018-11-22T09:49:42.950Z,3.60
2018-11-22T09:52:17.774Z,3.87
2018-11-22T09:54:56.369Z,3.93
2018-11-22T09:57:31.363Z,3.13
2018-11-22T10:00:05.987Z,3.07
2018-11-22T10:02:39.259Z,3.03
2018-11-22T10:05:16.974Z,5.10
2018-11-22T10:07:52.446Z,6.47
2018-11-22T10:10:31.023Z,7.43
2018-11-22T10:13:04.928Z,7.53
2018-11-22T10:15:38.551Z,7.50
2018-11-22T10:18:11.150Z,7.83
2018-11-22T10:20:45.012Z,7.13
2018-11-22T10:23:18.227Z,8.73
2018-11-22T10:25:56.447Z,8.03
2018-11-22T10:28:42.631Z,7.50
2018-11-22T10:31:16.195Z,8.00
2018-11-22T10:33:50.166Z,8.20
2018-11-22T10:36:22.771Z,6.63
2018-11-22T10:38:55.353Z,6.20
2018-11-22T10:41:29.179Z,4.83
2018-11-22T10:44:01.826Z,4.80
2018-11-22T10:46:35.308Z,4.53
2018-11-22T10:49:14.856Z,4.00
2018-11-22T10:51:50.129Z,3.83
2018-11-22T10:54:31.987Z,3.20
2018-11-22T10:57:16.980Z,3.20
2018-11-22T10:59:52.321Z,3.20
2018-11-22T11:02:47.278Z,3.30
2018-11-22T11:05:50.320Z,3.17
2018-11-22T11:08:38.539Z,3.10
2018-11-22T11:11:11.650Z,3.03
2018-11-22T11:13:44.837Z,3.07
2018-11-22T11:16:17.850Z,3.37
2018-11-22T11:18:56.204Z,3.53
2018-11-22T11:21:30.986Z,3.30
2018-11-22T11:24:05.449Z,2.73
2018-11-22T11:26:38.007Z,3.10
2018-11-22T11:29:12.738Z,2.80
2018-11-22T11:31:44.953Z,3.40
2018-11-22T11:34:17.591Z,2.77
2018-11-22T11:37:00.046Z,2.80
2018-11-22T11:39:33.471Z,2.70
2018-11-22T11:42:06.080Z,2.33
2018-11-22T11:44:43.100Z,2.53
2018-11-22T11:47:16.560Z,2.20
2018-11-22T11:49:56.480Z,2.50
2018-11-22T11:52:32.401Z,2.57
2018-11-22T11:55:12.863Z,2.60
2018-11-22T11:57:54.583Z,2.90
2018-11-22T12:00:58.905Z,2.70
2018-11-22T12:03:31.509Z,2.50
2018-11-22T12:06:08.675Z,2.43
2018-11-22T12:08:46.973Z,2.47
2018-11-22T12:11:28.024Z,2.50
2018-11-22T12:14:02.644Z,2.87
2018-11-22T12:16:40.899Z,2.60
2018-11-22T12:19:15.022Z,2.40
2018-11-22T12:21:50.010Z,2.17
2018-11-22T12:24:31.678Z,1.97
2018-11-22T12:27:08.821Z,1.70
2018-11-22T12:29:45.397Z,1.77
2018-11-22T12:32:49.482Z,1.70
2018-11-22T12:35:41.593Z,1.90
2018-11-22T12:38:38.539Z,2.10
2018-11-22T12:41:15.073Z,1.87
2018-11-22T12:43:49.631Z,2.00
2018-11-22T12:46:25.151Z,1.67
2018-11-22T12:48:57.908Z,1.80
2018-11-22T12:51:34.159Z,1.83
2018-11-22T12:54:08.739Z,1.57
2018-11-22T12:56:46.543Z,1.70
2018-11-22T12:59:25.592Z,1.50
2018-11-22T13:01:59.086Z,1.60
2018-11-22T13:04:32.589Z,1.37
2018-11-22T13:07:07.263Z,1.50
2018-11-22T13:09:42.090Z,1.10
2018-11-22T13:12:25.982Z,1.20
2018-11-22T13:14:58.640Z,0.90
2018-11-22T13:17:31.836Z,1.13
2018-11-22T13:20:06.284Z,0.80
2018-11-22T13:22:42.954Z,0.77
2018-11-22T13:25:19.442Z,1.00
2018-11-22T13:27:55.893Z,0.70
2018-11-22T13:30:29.673Z,1.00
2018-11-22T13:33:02.341Z,0.73
2018-11-22T13:35:37.107Z,0.80
2018-11-22T13:38:15.322Z,0.70
2018-11-22T13:40:48.608Z,0.70
2018-11-22T13:43:23.458Z,0.67
2018-11-22T13:50:42.077Z,0.70
2018-11-22T13:53:14.772Z,0.83
2018-11-22T13:55:49.027Z,0.80
2018-11-22T13:58:22.539Z,0.87
2018-11-22T14:01:01.324Z,0.80
2018-11-22T14:03:35.425Z,0.80
2018-11-22T14:06:12.481Z,0.60
2018-11-22T14:08:49.619Z,1.10
2018-11-22T14:11:22.271Z,0.80
2018-11-22T14:13:54.869Z,1.00
2018-11-22T14:16:32.495Z,1.07
2018-11-22T14:19:06.796Z,1.20
2018-11-22T14:21:41.263Z,1.03
2018-11-22T14:24:14.400Z,0.80
2018-11-22T14:26:47.022Z,0.83
2018-11-22T14:29:19.629Z,1.00
2018-11-22T14:31:52.203Z,0.80
2018-11-22T14:34:24.840Z,0.90
2018-11-22T14:36:57.424Z,1.00
2018-11-22T14:39:33.216Z,0.77
2018-11-22T14:42:07.722Z,1.00
2018-11-22T14:44:41.133Z,0.93
2018-11-22T14:47:13.711Z,0.87
2018-11-22T14:49:50.923Z,0.73
2018-11-22T14:52:26.359Z,0.80
2018-11-22T14:54:59.948Z,1.00
2018-11-22T14:57:34.747Z,1.10
2018-11-22T15:00:15.085Z,1.10
2018-11-22T15:02:53.976Z,0.60
2018-11-22T15:05:28.066Z,0.73
2018-11-22T15:08:04.845Z,0.90
2018-11-22T15:10:40.225Z,0.80
2018-11-22T15:13:15.119Z,0.80
2018-11-22T15:15:51.998Z,0.73
2018-11-22T15:18:25.341Z,0.80
2018-11-22T15:21:01.258Z,0.70
2018-11-22T15:23:31.962Z,0.90
2018-11-22T15:26:06.625Z,0.70
2018-11-22T15:28:41.517Z,0.70
2018-11-22T15:31:14.164Z,0.90
2018-11-22T15:33:49.785Z,0.90
2018-11-22T15:36:22.428Z,0.97
2018-11-22T15:39:01.479Z,1.00
2018-11-22T15:41:35.965Z,0.80
2018-11-22T15:44:13.915Z,0.83
2018-11-22T15:46:47.308Z,1.00
2018-11-22T15:49:24.085Z,0.80
2018-11-22T15:52:02.476Z,0.97
2018-11-22T15:54:36.868Z,0.60
2018-11-22T15:57:11.760Z,1.03
2018-11-22T15:59:46.753Z,0.97
2018-11-22T16:02:22.321Z,0.80
2018-11-22T16:04:56.851Z,0.87
2018-11-22T16:07:34.503Z,1.00
2018-11-22T16:10:31.893Z,0.97
2018-11-22T16:13:11.839Z,0.93
2018-11-22T16:16:03.621Z,1.00
2018-11-22T16:18:38.380Z,1.10
2018-11-22T16:21:11.861Z,0.90
2018-11-22T16:23:45.338Z,0.90
2018-11-22T16:26:19.096Z,0.90
2018-11-22T16:28:51.736Z,0.83
2018-11-22T16:31:26.654Z,1.10
2018-11-22T16:33:59.422Z,0.80
2018-11-22T16:36:32.919Z,0.83
2018-11-22T16:39:09.244Z,0.80
2018-11-22T16:41:42.444Z,0.90
2018-11-22T16:44:17.795Z,0.80
2018-11-22T16:46:51.456Z,1.00
2018-11-22T16:49:30.861Z,1.73
2018-11-22T16:52:05.965Z,2.13
2018-11-22T16:54:45.326Z,2.17
2018-11-22T16:57:33.531Z,1.90
2018-11-22T17:00:16.603Z,1.73
2018-11-22T17:02:55.338Z,2.20
2018-11-22T17:05:29.333Z,1.70
2018-11-22T17:08:08.543Z,2.40
2018-11-22T17:10:46.662Z,2.43
2018-11-22T17:13:23.747Z,2.40
2018-11-22T17:16:01.788Z,2.37
2018-11-22T17:18:38.509Z,2.00
2018-11-22T17:21:11.143Z,1.93
2018-11-22T17:23:46.616Z,2.23
2018-11-22T17:26:20.124Z,1.97
2018-11-22T17:28:53.975Z,2.87
2018-11-22T17:31:27.918Z,2.50
2018-11-22T17:34:02.939Z,2.00
2018-11-22T17:36:36.399Z,1.70
2018-11-22T17:39:18.382Z,1.70
2018-11-22T17:41:52.437Z,2.20
2018-11-22T17:44:27.729Z,1.60
2018-11-22T17:47:00.483Z,1.60
2018-11-22T17:49:33.810Z,1.97
2018-11-22T17:52:06.895Z,1.60
2018-11-22T17:54:42.745Z,1.37
2018-11-22T17:57:17.951Z,1.50
2018-11-22T17:59:52.251Z,1.73
2018-11-22T18:02:25.882Z,1.50
2018-11-22T18:05:00.109Z,1.70
2018-11-22T18:07:36.519Z,2.07
2018-11-22T18:10:15.683Z,1.80
2018-11-22T18:12:52.870Z,1.70
2018-11-22T18:15:28.477Z,1.77
2018-11-22T18:18:03.729Z,1.40
2018-11-22T18:20:36.394Z,1.30
2018-11-22T18:23:11.580Z,1.70
2018-11-22T18:25:48.917Z,1.63
2018-11-22T18:28:18.345Z,1.40
2018-11-22T18:30:52.125Z,1.50
2018-11-22T18:33:27.019Z,1.40
2018-11-22T18:36:06.989Z,1.67
2018-11-22T18:38:40.000Z,1.60
2018-11-22T18:41:14.845Z,1.30
2018-11-22T18:43:49.876Z,1.50
2018-11-22T18:46:26.327Z,1.20
2018-11-22T18:48:58.934Z,1.50
2018-11-22T18:51:35.112Z,1.40
2018-11-22T18:54:09.494Z,1.53
2018-11-22T18:56:48.500Z,1.40
2018-11-22T18:59:26.107Z,1.30
2018-11-22T19:02:01.666Z,1.20
2018-11-22T19:04:35.853Z,1.70
2018-11-22T19:07:09.784Z,1.30
2018-11-22T19:09:43.444Z,1.50
2018-11-22T19:12:18.050Z,1.53
2018-11-22T19:14:53.897Z,1.50
2018-11-22T19:17:29.836Z,1.30
2018-11-22T19:20:09.154Z,1.47
2018-11-22T19:22:42.838Z,1.30
2018-11-22T19:25:19.236Z,1.43
2018-11-22T19:27:54.212Z,1.30
2018-11-22T19:30:36.303Z,1.33
2018-11-22T19:33:05.564Z,1.10
2018-11-22T19:35:48.564Z,1.50
2018-11-22T19:38:21.274Z,1.07
2018-11-22T19:40:53.893Z,1.30
2018-11-22T19:43:28.741Z,1.43
2018-11-22T19:46:02.317Z,1.40
2018-11-22T19:48:36.327Z,1.50
2018-11-22T19:51:13.426Z,1.40
2018-11-22T19:53:48.886Z,1.33
2018-11-22T19:56:24.247Z,1.63
2018-11-22T19:59:01.250Z,1.40
2018-11-22T20:01:35.788Z,1.37
2018-11-22T20:04:08.635Z,1.43
2018-11-22T20:06:44.981Z,1.40
2018-11-22T20:09:17.616Z,1.30
2018-11-22T20:11:56.212Z,1.37
2018-11-22T20:14:29.437Z,1.30
2018-11-22T20:17:03.001Z,1.20
2018-11-22T20:19:38.536Z,1.30
2018-11-22T20:22:13.508Z,1.23
2018-11-22T20:24:46.619Z,1.63
2018-11-22T20:27:21.502Z,1.43
2018-11-22T20:29:56.356Z,1.37
2018-11-22T20:32:29.850Z,1.30
2018-11-22T20:35:02.480Z,1.20
2018-11-22T20:37:39.102Z,1.80
2018-11-22T20:40:15.319Z,1.33
2018-11-22T20:42:48.786Z,1.40
2018-11-22T20:45:22.584Z,1.10
2018-11-22T20:48:08.654Z,1.47
2018-11-22T20:50:42.007Z,1.30
2018-11-22T20:53:18.822Z,1.30
2018-11-22T20:55:55.918Z,1.70
2018-11-22T20:58:30.972Z,1.80
2018-11-22T21:01:04.476Z,1.77
2018-11-22T21:03:37.200Z,2.50
2018-11-22T21:06:09.859Z,2.37
2018-11-22T21:08:48.583Z,1.73
2018-11-22T21:11:20.168Z,1.40
2018-11-22T21:13:52.959Z,1.50
2018-11-22T21:16:26.791Z,1.23
2018-11-22T21:19:02.965Z,1.50
2018-11-22T21:21:35.616Z,1.40
2018-11-22T21:24:08.448Z,1.67
2018-11-22T21:26:41.207Z,2.90
2018-11-22T21:29:13.799Z,2.93
2018-11-22T21:31:50.917Z,2.20
2018-11-22T21:34:30.305Z,2.13
2018-11-22T21:37:08.252Z,3.47
2018-11-22T21:39:40.982Z,2.80
2018-11-22T21:42:13.613Z,3.23
2018-11-22T21:44:48.566Z,2.97
2018-11-22T21:47:21.197Z,2.50
2018-11-22T21:49:55.971Z,1.60
2018-11-22T21:52:28.729Z,1.77
2018-11-22T21:55:01.426Z,2.10
2018-11-22T21:57:36.554Z,1.73
2018-11-22T22:00:14.175Z,1.70
2018-11-22T22:02:52.686Z,1.57
2018-11-22T22:05:31.306Z,1.50
2018-11-22T22:08:06.250Z,1.50
2018-11-22T22:10:46.702Z,1.13
2018-11-22T22:13:21.657Z,1.40
2018-11-22T22:15:57.469Z,1.30
2018-11-22T22:18:39.648Z,5.00
2018-11-22T22:23:54.787Z,3.10
2018-11-22T22:26:29.447Z,3.00
2018-11-22T22:29:02.075Z,4.90
2018-11-22T22:31:35.451Z,8.00
2018-11-22T22:34:10.956Z,4.50
2018-11-22T22:36:45.141Z,4.80
2018-11-22T22:39:19.033Z,2.40
2018-11-22T22:41:52.418Z,2.77
2018-11-22T22:44:29.738Z,3.30
2018-11-22T22:47:02.665Z,4.43
2018-11-22T22:49:36.438Z,4.73
2018-11-22T22:52:09.529Z,5.17
2018-11-22T22:54:47.576Z,4.90
2018-11-22T22:57:25.966Z,3.67
2018-11-22T23:00:08.066Z,3.67
2018-11-22T23:02:41.416Z,3.53
2018-11-22T23:05:15.337Z,3.70
2018-11-22T23:08:00.020Z,3.53
2018-11-22T23:10:36.382Z,4.00
2018-11-22T23:13:14.410Z,3.80
2018-11-22T23:15:53.279Z,3.43
2018-11-22T23:18:26.982Z,3.50
2018-11-22T23:21:00.797Z,4.17
2018-11-22T23:23:33.887Z,3.87
2018-11-22T23:26:11.064Z,4.20
2018-11-22T23:28:50.903Z,3.40
2018-11-22T23:31:27.445Z,3.63
2018-11-22T23:34:17.879Z,4.03
2018-11-22T23:36:51.829Z,3.83
2018-11-22T23:39:29.770Z,4.60
2018-11-22T23:42:02.616Z,4.90
2018-11-22T23:45:15.863Z,4.20
2018-11-22T23:47:55.462Z,3.97
2018-11-22T23:50:30.698Z,3.70
2018-11-22T23:53:05.006Z,4.70
2018-11-22T23:55:39.197Z,5.00
2018-11-22T23:58:13.853Z,4.73
